Time;durP1;ratioP1;P1;durP2;ratioP2;P2;SDS_P1;SDS_P2;PMS_P1;PMS_P2;Temp;Humidity;BMP_temperature;BMP_pressure;BME280_temperature;BME280_humidity;BME280_pressure;Samples;Min_cycle;Max_cycle;Signal;HPM_P1;HPM_P2
2022/12/07 00:01:40;;;;;;;15.00;10.50;;;2.40;99.90;;;;;;5059826;28;20159;-89
2022/12/07 00:04:08;;;;;;;13.77;9.83;;;2.40;99.90;;;;;;5066681;28;20039;-89
2022/12/07 00:06:38;;;;;;;13.97;10.40;;;2.40;99.90;;;;;;5043854;28;20463;-89
2022/12/07 00:09:05;;;;;;;14.27;10.87;;;2.40;99.90;;;;;;5077722;28;20033;-89
2022/12/07 00:11:32;;;;;;;13.57;9.97;;;2.40;99.90;;;;;;5046132;28;20359;-89
2022/12/07 00:14:00;;;;;;;14.47;9.80;;;2.40;99.90;;;;;;5063343;28;20025;-89
2022/12/07 00:16:28;;;;;;;12.63;9.90;;;2.40;99.90;;;;;;5066149;28;20028;-89
2022/12/07 00:18:54;;;;;;;13.13;10.23;;;2.40;99.90;;;;;;5049265;28;20020;-90
2022/12/07 00:21:24;;;;;;;13.67;10.40;;;2.40;99.90;;;;;;5056498;28;20111;-89
2022/12/07 00:23:51;;;;;;;12.87;10.50;;;2.40;99.90;;;;;;5059350;28;20041;-89
2022/12/07 00:26:19;;;;;;;14.17;9.47;;;2.40;99.90;;;;;;5072477;28;20025;-89
2022/12/07 00:28:49;;;;;;;15.20;10.33;;;2.40;99.90;;;;;;5072160;28;20059;-89
2022/12/07 00:31:16;;;;;;;14.73;10.77;;;2.50;99.90;;;;;;5068702;28;20056;-89
2022/12/07 00:33:42;;;;;;;15.23;10.17;;;2.40;99.90;;;;;;5073203;28;20029;-89
2022/12/07 00:36:10;;;;;;;13.33;9.83;;;2.40;99.90;;;;;;5068389;28;20055;-89
2022/12/07 00:38:37;;;;;;;14.07;9.77;;;2.40;99.90;;;;;;5057228;28;20103;-89
2022/12/07 00:41:14;;;;;;;13.33;9.60;;;2.40;99.90;;;;;;5062012;28;20099;-89
2022/12/07 00:43:41;;;;;;;14.43;9.83;;;2.40;99.90;;;;;;5068452;28;20029;-89
2022/12/07 00:46:08;;;;;;;13.53;10.00;;;2.40;99.90;;;;;;5066267;28;20020;-89
2022/12/07 00:48:33;;;;;;;14.43;9.87;;;2.40;99.90;;;;;;5062010;28;20036;-89
2022/12/07 00:50:59;;;;;;;13.10;9.57;;;2.40;99.90;;;;;;5055739;28;20405;-89
2022/12/07 00:53:26;;;;;;;13.50;9.90;;;2.40;99.90;;;;;;5044444;28;20077;-89
2022/12/07 00:55:52;;;;;;;13.47;9.63;;;2.40;99.90;;;;;;5070569;28;20056;-89
2022/12/07 00:58:18;;;;;;;14.07;9.70;;;2.40;99.90;;;;;;5063616;28;20426;-89
2022/12/07 01:00:44;;;;;;;12.90;9.60;;;2.40;99.90;;;;;;5071430;28;20017;-89
2022/12/07 01:03:12;;;;;;;12.57;9.57;;;2.40;99.90;;;;;;5075744;28;20350;-89
2022/12/07 01:05:37;;;;;;;13.70;9.83;;;2.40;99.90;;;;;;5060653;28;20070;-89
2022/12/07 01:08:03;;;;;;;12.70;9.93;;;2.40;99.90;;;;;;5064502;28;20024;-89
2022/12/07 01:10:30;;;;;;;16.97;10.80;;;2.40;99.90;;;;;;5050621;28;20033;-89
2022/12/07 01:12:56;;;;;;;13.37;9.97;;;2.40;99.90;;;;;;5071461;28;20051;-89
2022/12/07 01:15:22;;;;;;;14.20;9.13;;;2.40;99.90;;;;;;5069317;28;20060;-89
2022/12/07 01:17:47;;;;;;;13.17;9.77;;;2.40;99.90;;;;;;5049169;28;20032;-89
2022/12/07 01:20:15;;;;;;;13.87;10.27;;;2.40;99.90;;;;;;5062185;28;20096;-89
2022/12/07 01:22:42;;;;;;;17.03;10.33;;;2.40;99.90;;;;;;5040528;28;20025;-88
2022/12/07 01:25:09;;;;;;;15.53;9.60;;;2.40;99.90;;;;;;5048703;28;20066;-88
2022/12/07 01:27:35;;;;;;;14.37;10.67;;;2.40;99.90;;;;;;5064552;28;20067;-89
2022/12/07 01:30:01;;;;;;;12.60;9.30;;;2.40;99.90;;;;;;5066352;28;20036;-88
2022/12/07 01:32:28;;;;;;;14.77;9.97;;;2.40;99.90;;;;;;5054378;28;20056;-88
2022/12/07 01:34:54;;;;;;;14.23;10.37;;;2.40;99.90;;;;;;5057462;28;20017;-89
2022/12/07 01:37:19;;;;;;;14.50;10.17;;;2.40;99.90;;;;;;5046203;28;20082;-88
2022/12/07 01:39:49;;;;;;;13.77;9.97;;;2.40;99.90;;;;;;5074469;28;20032;-89
2022/12/07 01:42:14;;;;;;;14.13;10.37;;;2.40;99.90;;;;;;5041016;28;20048;-88
2022/12/07 01:45:17;;;;;;;12.33;9.37;;;2.40;99.90;;;;;;5068389;28;20071;-88
2022/12/07 01:47:50;;;;;;;12.67;9.00;;;2.40;99.90;;;;;;5064675;28;20035;-88
2022/12/07 01:50:16;;;;;;;12.33;9.70;;;2.40;99.90;;;;;;5059549;28;20092;-89
2022/12/07 01:52:43;;;;;;;14.70;9.43;;;2.40;99.90;;;;;;5067280;28;20028;-89
2022/12/07 01:55:13;;;;;;;12.97;10.03;;;2.40;99.90;;;;;;5055986;28;20520;-89
2022/12/07 01:57:48;;;;;;;13.63;9.80;;;2.40;99.90;;;;;;5073977;28;20075;-88
2022/12/07 02:00:15;;;;;;;;;;;2.40;99.90;;;;;;5072445;28;20044;-88
2022/12/07 02:03:03;;;;;;;14.43;9.87;;;2.40;99.90;;;;;;5042489;28;19909;-89
2022/12/07 02:05:29;;;;;;;12.70;9.63;;;2.40;99.90;;;;;;5065470;28;20032;-88
2022/12/07 02:07:57;;;;;;;14.70;9.53;;;2.40;99.90;;;;;;5071890;28;20511;-89
2022/12/07 02:10:25;;;;;;;12.60;9.47;;;2.40;99.90;;;;;;5069527;28;20092;-89
2022/12/07 02:12:58;;;;;;;12.43;9.57;;;2.40;99.90;;;;;;5056757;28;20074;-88
2022/12/07 02:15:38;;;;;;;12.20;9.70;;;2.30;99.90;;;;;;5061093;28;20028;-89
2022/12/07 02:18:14;;;;;;;13.97;9.83;;;2.40;99.90;;;;;;5060564;28;20028;-88
2022/12/07 02:20:47;;;;;;;16.37;11.50;;;2.40;99.90;;;;;;5058150;28;20048;-88
2022/12/07 02:23:16;;;;;;;16.30;11.03;;;2.40;99.90;;;;;;5063477;28;20024;-88
2022/12/07 02:26:00;;;;;;;15.47;11.50;;;2.30;99.90;;;;;;5060244;28;20049;-88
2022/12/07 02:28:36;;;;;;;15.60;11.10;;;2.30;99.90;;;;;;5062834;28;20032;-88
2022/12/07 02:31:23;;;;;;;14.90;10.87;;;2.40;99.90;;;;;;5058958;28;20096;-88
2022/12/07 02:34:08;;;;;;;15.03;10.53;;;2.30;99.90;;;;;;5061551;28;20035;-90
2022/12/07 02:36:42;;;;;;;13.07;8.90;;;2.40;99.90;;;;;;5062076;28;20032;-88
2022/12/07 02:39:43;;;;;;;16.30;11.60;;;2.30;99.90;;;;;;5062201;28;20045;-89
2022/12/07 02:42:17;;;;;;;16.83;10.30;;;2.30;99.90;;;;;;5059712;28;20079;-89
2022/12/07 02:44:45;;;;;;;17.13;11.70;;;2.30;99.90;;;;;;5044778;28;20473;-89
2022/12/07 02:47:15;;;;;;;17.00;11.27;;;2.30;99.90;;;;;;5067939;28;20020;-89
2022/12/07 02:49:41;;;;;;;17.00;11.27;;;2.30;99.90;;;;;;5062038;28;20070;-89
2022/12/07 02:52:07;;;;;;;15.13;11.00;;;2.30;99.90;;;;;;5061003;28;20025;-89
2022/12/07 02:54:32;;;;;;;16.80;11.83;;;2.30;99.90;;;;;;5055874;28;20136;-89
2022/12/07 02:57:19;;;;;;;15.47;10.83;;;2.30;99.90;;;;;;5061633;28;20024;-89
2022/12/07 02:59:57;;;;;;;15.17;10.90;;;2.20;99.90;;;;;;5058632;28;20039;-89
2022/12/07 03:02:44;;;;;;;15.90;11.03;;;2.30;99.90;;;;;;5061480;28;20036;-89
2022/12/07 03:05:35;;;;;;;14.60;10.70;;;2.30;99.90;;;;;;5056222;28;20446;-89
2022/12/07 03:08:13;;;;;;;13.83;10.53;;;2.20;99.90;;;;;;5053757;28;20025;-88
2022/12/07 03:11:05;;;;;;;15.10;10.83;;;2.20;99.90;;;;;;5051776;28;20029;-89
2022/12/07 03:14:04;;;;;;;16.23;11.80;;;2.20;99.90;;;;;;5067242;28;20366;-89
2022/12/07 03:16:35;;;;;;;14.87;11.37;;;2.20;99.90;;;;;;5044141;28;20056;-89
2022/12/07 03:19:10;;;;;;;15.33;10.67;;;2.20;99.90;;;;;;5043655;28;20024;-89
2022/12/07 03:21:44;;;;;;;15.95;10.63;;;2.20;99.90;;;;;;5082780;28;20021;-86
2022/12/07 03:24:18;;;;;;;15.73;11.40;;;2.20;99.90;;;;;;5084087;28;20472;-86
2022/12/07 03:26:51;;;;;;;15.85;11.50;;;2.30;99.90;;;;;;5082223;28;20094;-86
2022/12/07 03:29:25;;;;;;;16.23;12.23;;;2.20;99.90;;;;;;5082536;28;20033;-86
2022/12/07 03:32:29;;;;;;;16.33;11.80;;;2.20;99.90;;;;;;5082826;28;20057;-87
2022/12/07 03:35:12;;;;;;;14.60;11.37;;;2.20;99.90;;;;;;5081355;28;20035;-87
2022/12/07 03:38:16;;;;;;;16.40;12.00;;;2.20;99.90;;;;;;5078222;28;20434;-86
2022/12/07 03:40:49;;;;;;;17.60;11.80;;;2.20;99.90;;;;;;5074832;28;20017;-86
2022/12/07 03:43:16;;;;;;;17.00;11.87;;;2.20;99.90;;;;;;5071638;28;20376;-86
2022/12/07 03:45:47;;;;;;;17.70;12.03;;;2.20;99.90;;;;;;5052813;28;20418;-86
2022/12/07 03:48:33;;;;;;;16.87;12.20;;;2.20;99.90;;;;;;5053181;28;20025;-86
2022/12/07 03:51:28;;;;;;;17.67;11.63;;;2.20;99.90;;;;;;5034787;28;20057;-86
2022/12/07 03:54:05;;;;;;;20.20;12.90;;;2.20;99.90;;;;;;5052523;28;20025;-86
2022/12/07 03:56:32;;;;;;;16.67;12.00;;;2.20;99.90;;;;;;5052621;28;20541;-86
2022/12/07 03:58:57;;;;;;;15.60;11.33;;;2.20;99.90;;;;;;5052482;28;20351;-86
2022/12/07 04:01:24;;;;;;;14.67;10.77;;;2.20;99.90;;;;;;5052757;28;20024;-86
2022/12/07 04:03:49;;;;;;;15.73;11.53;;;2.20;99.90;;;;;;5052700;28;20028;-86
2022/12/07 04:06:15;;;;;;;17.37;11.87;;;2.20;99.90;;;;;;5052561;28;20021;-86
2022/12/07 04:08:41;;;;;;;14.50;11.70;;;2.20;99.90;;;;;;5037509;28;20474;-86
2022/12/07 04:11:06;;;;;;;19.93;12.17;;;2.20;99.90;;;;;;5056710;28;20147;-86
2022/12/07 04:14:17;;;;;;;19.43;11.43;;;2.20;99.90;;;;;;5056374;28;20029;-86
2022/12/07 04:16:17;;;;;;;17.88;11.82;;;2.20;99.90;;;;;;5056399;28;20024;-86
2022/12/07 04:18:43;;;;;;;19.07;12.27;;;2.20;99.90;;;;;;5038336;28;20036;-86
2022/12/07 04:21:08;;;;;;;18.83;12.67;;;2.20;99.90;;;;;;5056153;28;20033;-86
2022/12/07 04:23:34;;;;;;;17.20;12.17;;;2.10;99.90;;;;;;5056351;28;20029;-86
2022/12/07 04:25:59;;;;;;;16.67;11.57;;;2.10;99.90;;;;;;5056644;28;20036;-92
2022/12/07 04:28:25;;;;;;;16.43;12.37;;;2.20;99.90;;;;;;5051118;28;20023;-92
2022/12/07 04:30:51;;;;;;;16.10;11.70;;;2.20;99.90;;;;;;5061775;28;20061;-91
2022/12/07 04:33:16;;;;;;;15.40;11.67;;;2.10;99.90;;;;;;5060842;28;20025;-91
2022/12/07 04:35:43;;;;;;;15.70;11.33;;;2.10;99.90;;;;;;5075723;28;20024;-91
2022/12/07 04:38:09;;;;;;;14.87;11.73;;;2.10;99.90;;;;;;5057109;28;20079;-90
2022/12/07 04:40:39;;;;;;;17.60;12.63;;;2.20;99.90;;;;;;5046192;28;20020;-91
2022/12/07 04:43:07;;;;;;;16.07;12.13;;;2.10;99.90;;;;;;5052418;28;20043;-90
2022/12/07 04:51:49;;;;;;;17.47;13.40;;;2.10;99.90;;;;;;4761957;23;20135;-90
2022/12/07 05:01:20;;;;;;;19.50;12.23;;;2.00;99.90;;;;;;4955832;28;20106;-90
2022/12/07 05:04:20;;;;;;;17.10;12.93;;;2.00;99.90;;;;;;5011817;28;20516;-91
2022/12/07 05:20:12;;;;;;;18.98;13.00;;;1.90;99.90;;;;;;4897497;29;20549;-88
2022/12/07 05:23:21;;;;;;;18.13;13.33;;;1.90;99.90;;;;;;4913061;29;20040;-88
2022/12/07 05:32:39;;;;;;;19.40;13.67;;;1.90;99.90;;;;;;4861165;29;20495;-88
2022/12/07 05:36:07;;;;;;;17.27;13.43;;;1.80;99.90;;;;;;4897682;29;20032;-88
2022/12/07 05:38:38;;;;;;;19.45;13.32;;;1.90;99.90;;;;;;4897883;29;20040;-89
2022/12/07 05:44:42;;;;;;;19.63;13.80;;;1.90;99.90;;;;;;4897718;29;20480;-89
2022/12/07 05:47:08;;;;;;;19.80;13.97;;;1.90;99.90;;;;;;4897671;29;20494;-88
2022/12/07 05:49:50;;;;;;;19.77;13.87;;;1.90;99.90;;;;;;4957159;28;20104;-88
2022/12/07 05:52:19;;;;;;;21.73;14.17;;;1.90;99.90;;;;;;5034556;28;20025;-90
2022/12/07 05:55:03;;;;;;;19.53;13.43;;;1.90;99.90;;;;;;5017013;28;20030;-89
2022/12/07 05:57:32;;;;;;;20.07;13.57;;;1.90;99.90;;;;;;5034513;28;20032;-89
2022/12/07 06:00:01;;;;;;;21.90;13.57;;;1.90;99.90;;;;;;5034777;28;20029;-89
2022/12/07 06:02:29;;;;;;;19.83;14.17;;;1.90;99.90;;;;;;5034473;28;20049;-89
2022/12/07 06:05:12;;;;;;;19.80;14.53;;;1.90;99.90;;;;;;5017608;28;20446;-89
2022/12/07 06:07:49;;;;;;;19.77;13.83;;;1.90;99.90;;;;;;5016949;28;20395;-89
2022/12/07 06:10:18;;;;;;;20.23;13.90;;;1.90;99.90;;;;;;5034974;28;20017;-89
2022/12/07 06:13:38;;;;;;;;;;;;;;;;;;;;;
2022/12/07 06:16:55;;;;;;;;;;;;;;;;;;;;;
2022/12/07 06:26:18;;;;;;;;;;;;;;;;;;;;;
2022/12/07 06:29:32;;;;;;;18.80;13.63;;;1.80;99.90;;;;;;4978624;28;20153;-88
2022/12/07 07:53:40;;;;;;;;;;;;;;;;;;;;;
2022/12/07 08:18:31;;;;;;;23.50;16.83;;;2.10;99.90;;;;;;4858175;29;20044;-87
2022/12/07 08:21:20;;;;;;;;;;;;;;;;;;;;;
2022/12/07 08:24:12;;;;;;;25.07;17.10;;;2.10;99.90;;;;;;4934791;29;20039;-87
2022/12/07 08:26:49;;;;;;;24.80;17.83;;;2.10;99.90;;;;;;4992092;28;20053;-87
2022/12/07 08:29:32;;;;;;;26.23;17.73;;;2.10;99.90;;;;;;5016546;28;20022;-87
2022/12/07 08:32:02;;;;;;;25.57;17.50;;;2.10;99.90;;;;;;5016637;28;20028;-87
2022/12/07 08:34:52;;;;;;;24.33;16.63;;;2.20;99.90;;;;;;5016448;28;20145;-87
2022/12/07 08:40:20;;;;;;;22.93;17.13;;;2.30;99.90;;;;;;5015757;28;20030;-87
2022/12/07 08:44:00;;;;;;;26.60;18.27;;;2.30;99.90;;;;;;5016609;28;20018;-87
2022/12/07 08:46:40;;;;;;;23.50;17.47;;;2.30;99.90;;;;;;5006693;28;20418;-92
2022/12/07 08:50:03;;;;;;;25.83;17.20;;;2.40;99.90;;;;;;5018759;28;20049;-91
2022/12/07 08:53:20;;;;;;;24.20;16.30;;;2.40;99.90;;;;;;4975056;28;20081;-87
2022/12/07 08:56:10;;;;;;;23.00;16.07;;;2.50;99.90;;;;;;4956449;28;20137;-91
2022/12/07 08:58:52;;;;;;;25.83;16.87;;;2.70;99.90;;;;;;4995948;28;20033;-91
2022/12/07 09:01:29;;;;;;;26.47;17.20;;;2.70;99.90;;;;;;4999438;28;20022;-91
2022/12/07 09:03:57;;;;;;;24.97;17.60;;;2.70;99.90;;;;;;5022145;28;20470;-91
2022/12/07 09:06:23;;;;;;;25.20;16.90;;;2.80;99.90;;;;;;5030386;28;20049;-91
2022/12/07 09:08:53;;;;;;;25.60;17.30;;;2.80;99.90;;;;;;5034939;28;20100;-91
2022/12/07 09:11:19;;;;;;;23.43;16.97;;;2.80;99.90;;;;;;5034396;28;20030;-91
2022/12/07 09:13:44;;;;;;;24.03;16.90;;;2.80;99.90;;;;;;5035880;28;20029;-91
2022/12/07 09:16:10;;;;;;;22.30;16.07;;;2.80;99.90;;;;;;5035152;28;20037;-91
2022/12/07 09:18:35;;;;;;;23.13;16.20;;;2.90;99.90;;;;;;5036088;28;20458;-91
2022/12/07 09:21:01;;;;;;;23.33;16.47;;;3.00;99.90;;;;;;5034127;28;20418;-91
2022/12/07 09:23:26;;;;;;;23.67;16.67;;;3.00;99.90;;;;;;5034270;28;20079;-91
2022/12/07 09:25:52;;;;;;;25.33;17.20;;;3.00;99.90;;;;;;5037390;28;20414;-91
2022/12/07 09:28:18;;;;;;;23.90;17.03;;;3.00;99.90;;;;;;5033025;28;20025;-92
2022/12/07 09:30:50;;;;;;;25.43;17.43;;;3.10;99.90;;;;;;5035933;28;20028;-91
2022/12/07 09:33:16;;;;;;;25.20;16.13;;;3.10;99.90;;;;;;5035198;28;20101;-91
2022/12/07 09:35:49;;;;;;;23.70;16.30;;;3.20;99.90;;;;;;5035362;28;20097;-91
2022/12/07 09:38:15;;;;;;;22.27;15.73;;;3.20;99.90;;;;;;5035722;28;20031;-92
2022/12/07 09:40:43;;;;;;;22.77;15.47;;;3.30;99.90;;;;;;5026517;28;20383;-92
2022/12/07 09:43:21;;;;;;;23.37;15.90;;;3.30;99.90;;;;;;5032007;28;20347;-90
2022/12/07 09:45:49;;;;;;;23.73;16.77;;;3.30;99.90;;;;;;5029698;28;20363;-91
2022/12/07 09:48:19;;;;;;;22.97;15.37;;;3.30;99.90;;;;;;5033133;28;20029;-91
2022/12/07 09:50:47;;;;;;;20.93;15.13;;;3.30;99.90;;;;;;5033096;28;20021;-90
2022/12/07 09:53:34;;;;;;;21.50;15.40;;;3.40;99.90;;;;;;5033493;28;20018;-91
2022/12/07 09:56:00;;;;;;;20.43;14.00;;;3.40;99.90;;;;;;5033976;28;20025;-91
2022/12/07 09:58:28;;;;;;;20.33;14.80;;;3.40;99.90;;;;;;5014741;28;20378;-87
2022/12/07 10:00:58;;;;;;;22.17;16.27;;;3.40;99.90;;;;;;5051400;28;20033;-87
2022/12/07 10:03:26;;;;;;;24.73;16.27;;;3.40;99.90;;;;;;5054815;28;20036;-86
2022/12/07 10:05:53;;;;;;;20.77;14.80;;;3.50;99.90;;;;;;5054172;28;20052;-87
2022/12/07 10:08:19;;;;;;;20.53;14.33;;;3.50;99.90;;;;;;5054536;28;20032;-86
2022/12/07 10:10:48;;;;;;;20.43;14.03;;;3.60;99.90;;;;;;5054750;28;20059;-86
2022/12/07 10:13:18;;;;;;;22.33;15.43;;;3.60;99.90;;;;;;5054444;28;20017;-87
2022/12/07 10:15:48;;;;;;;24.17;15.10;;;3.60;99.90;;;;;;5052969;28;20033;-91
2022/12/07 10:18:27;;;;;;;17.90;13.27;;;3.60;99.90;;;;;;5029745;28;20051;-91
2022/12/07 10:21:03;;;;;;;19.87;14.50;;;3.60;99.90;;;;;;5033912;28;20155;-91
2022/12/07 10:23:28;;;;;;;;;;;3.60;99.90;;;;;;5032267;28;20367;-91
2022/12/07 10:25:54;;;;;;;21.80;13.50;;;3.80;99.90;;;;;;5033930;28;19931;-91
2022/12/07 10:28:24;;;;;;;22.27;14.17;;;3.80;99.90;;;;;;5033451;28;20034;-91
2022/12/07 10:30:52;;;;;;;18.57;13.37;;;3.90;99.90;;;;;;5024151;28;20067;-90
2022/12/07 10:33:39;;;;;;;22.07;14.53;;;3.90;99.90;;;;;;5025717;28;20104;-90
2022/12/07 10:36:20;;;;;;;18.67;12.40;;;3.90;99.90;;;;;;5029300;28;20010;-91
2022/12/07 10:38:58;;;;;;;16.80;12.60;;;3.90;99.90;;;;;;5034022;28;20029;-91
2022/12/07 10:41:24;;;;;;;16.73;11.93;;;3.90;99.90;;;;;;5034549;28;20048;-89
2022/12/07 10:43:56;;;;;;;21.77;12.63;;;3.90;99.90;;;;;;5035721;28;20501;-89
2022/12/07 10:46:26;;;;;;;17.40;10.87;;;3.90;99.90;;;;;;5022826;28;20462;-88
2022/12/07 10:49:01;;;;;;;17.90;10.50;;;4.00;99.90;;;;;;5027764;28;20029;-89
2022/12/07 10:51:34;;;;;;;15.52;10.45;;;4.00;99.90;;;;;;5021751;28;20109;-89
2022/12/07 10:54:03;;;;;;;15.40;10.27;;;4.10;99.90;;;;;;5034585;28;20509;-89
2022/12/07 10:56:42;;;;;;;17.50;11.50;;;4.10;99.90;;;;;;5016886;28;20034;-89
2022/12/07 10:59:29;;;;;;;14.00;9.63;;;4.00;99.90;;;;;;5033754;28;20101;-89
2022/12/07 11:02:20;;;;;;;12.37;8.87;;;4.10;99.90;;;;;;5026522;28;20021;-89
2022/12/07 11:05:02;;;;;;;13.30;9.27;;;4.10;99.90;;;;;;5023214;28;20028;-89
2022/12/07 11:07:49;;;;;;;12.70;8.33;;;4.00;99.90;;;;;;5024978;28;20042;-89
2022/12/07 11:10:39;;;;;;;11.70;8.40;;;4.10;99.90;;;;;;5031708;28;20021;-89
2022/12/07 11:13:20;;;;;;;13.40;9.03;;;4.10;99.90;;;;;;5028395;28;20040;-89
2022/12/07 11:15:51;;;;;;;14.87;9.03;;;4.20;99.90;;;;;;5031653;28;20103;-89
2022/12/07 11:18:27;;;;;;;12.00;8.67;;;4.20;99.90;;;;;;5030008;28;20478;-89
2022/12/07 11:21:04;;;;;;;12.37;7.97;;;4.30;99.90;;;;;;5019437;28;20021;-89
2022/12/07 11:23:45;;;;;;;11.87;7.93;;;4.40;99.90;;;;;;5026892;28;20500;-89
2022/12/07 11:26:49;;;;;;;12.70;7.47;;;4.40;99.90;;;;;;5031755;28;20018;-88
2022/12/07 11:29:23;;;;;;;9.93;7.10;;;4.40;99.90;;;;;;5029372;28;20033;-89
2022/12/07 11:32:07;;;;;;;14.27;8.60;;;4.60;99.90;;;;;;5031026;28;20088;-89
2022/12/07 11:34:51;;;;;;;12.43;8.30;;;4.60;99.90;;;;;;5031737;28;20033;-90
2022/12/07 11:37:24;;;;;;;10.67;6.87;;;4.60;99.90;;;;;;5030141;28;20030;-90
2022/12/07 11:39:54;;;;;;;10.40;6.47;;;4.70;99.90;;;;;;5028775;28;20366;-89
2022/12/07 11:42:28;;;;;;;10.43;6.57;;;4.70;99.90;;;;;;5030701;28;20041;-89
2022/12/07 11:45:16;;;;;;;11.27;7.00;;;4.70;99.90;;;;;;5027450;28;21537;-89
2022/12/07 11:48:00;;;;;;;10.53;6.67;;;4.70;99.90;;;;;;5011585;28;20026;-89
2022/12/07 11:50:42;;;;;;;11.23;7.07;;;4.70;99.90;;;;;;5028698;28;20482;-88
2022/12/07 11:53:08;;;;;;;15.63;7.90;;;4.70;99.90;;;;;;5023582;28;20991;-90
2022/12/07 11:56:11;;;;;;;12.13;7.40;;;4.60;99.90;;;;;;5019944;28;20029;-89
2022/12/07 11:58:55;;;;;;;12.20;7.33;;;4.60;99.90;;;;;;5016994;28;20084;-89
2022/12/07 12:01:33;;;;;;;11.73;8.10;;;4.50;99.90;;;;;;5021975;28;20030;-90
2022/12/07 12:04:02;;;;;;;13.07;8.20;;;4.50;99.90;;;;;;5018685;28;20087;-89
2022/12/07 12:06:29;;;;;;;12.10;8.70;;;4.50;99.90;;;;;;5018996;28;20045;-89
2022/12/07 12:09:06;;;;;;;12.60;8.80;;;4.50;99.90;;;;;;5032325;28;20406;-89
2022/12/07 12:12:10;;;;;;;12.33;9.00;;;4.40;99.90;;;;;;5015805;28;20040;-89
2022/12/07 12:15:17;;;;;;;12.50;8.60;;;4.30;99.90;;;;;;5020625;28;20083;-89
2022/12/07 12:18:01;;;;;;;11.93;8.63;;;4.20;99.90;;;;;;4968088;28;20120;-89
2022/12/07 12:20:43;;;;;;;15.57;8.80;;;4.20;99.90;;;;;;4955947;28;20023;-89
2022/12/07 12:23:21;;;;;;;11.07;7.83;;;4.20;99.90;;;;;;5013850;28;20379;-89
2022/12/07 12:26:01;;;;;;;12.60;8.83;;;4.30;99.90;;;;;;5020212;28;20017;-89
2022/12/07 12:28:33;;;;;;;14.57;9.10;;;4.40;99.90;;;;;;5032823;28;20112;-89
2022/12/07 12:31:14;;;;;;;14.60;9.70;;;4.60;99.90;;;;;;5070631;28;20101;-89
2022/12/07 12:33:56;;;;;;;12.13;9.00;;;4.60;99.90;;;;;;5019291;28;20030;-89
2022/12/07 12:36:32;;;;;;;14.80;9.03;;;4.80;99.90;;;;;;5038587;28;20002;-89
2022/12/07 12:38:58;;;;;;;13.80;8.47;;;4.80;99.90;;;;;;5037594;28;20014;-89
2022/12/07 12:42:05;;;;;;;13.13;9.07;;;4.90;99.90;;;;;;5060159;28;20041;-89
2022/12/07 12:44:33;;;;;;;13.60;9.20;;;4.90;99.90;;;;;;5055482;28;20033;-89
2022/12/07 12:47:01;;;;;;;12.80;9.43;;;4.90;99.90;;;;;;5039001;28;20474;-92
2022/12/07 12:49:33;;;;;;;12.30;8.57;;;4.90;99.90;;;;;;5015038;28;20026;-92
2022/12/07 12:52:19;;;;;;;12.63;9.13;;;5.00;99.90;;;;;;5033770;28;20032;-92
2022/12/07 12:55:01;;;;;;;12.38;8.23;;;5.00;99.90;;;;;;5029142;28;20044;-92
2022/12/07 12:57:30;;;;;;;12.47;9.07;;;5.00;99.90;;;;;;5020920;28;20937;-92
2022/12/07 13:00:03;;;;;;;11.47;8.20;;;5.00;99.90;;;;;;5019670;28;20040;-92
2022/12/07 13:02:35;;;;;;;13.53;8.80;;;5.00;99.90;;;;;;5028707;28;20100;-91
2022/12/07 13:05:16;;;;;;;12.87;9.00;;;5.00;99.90;;;;;;5021459;28;20385;-92
2022/12/07 13:07:51;;;;;;;12.33;8.40;;;4.90;99.90;;;;;;4979203;28;20129;-91
2022/12/07 13:10:28;;;;;;;15.63;9.32;;;4.90;99.90;;;;;;4990174;28;20027;-92
2022/12/07 13:13:19;;;;;;;14.97;9.07;;;4.80;99.90;;;;;;5053078;28;20044;-91
2022/12/07 13:16:08;;;;;;;12.67;9.00;;;4.70;99.90;;;;;;5057889;28;20776;-91
2022/12/07 13:18:34;;;;;;;12.90;9.37;;;4.70;99.90;;;;;;5041963;28;20033;-90
2022/12/07 13:21:09;;;;;;;13.83;8.87;;;4.60;99.90;;;;;;5025022;28;20098;-90
2022/12/07 13:23:37;;;;;;;14.97;8.90;;;4.50;99.90;;;;;;5022443;28;20125;-90
2022/12/07 13:26:19;;;;;;;12.63;9.20;;;4.40;99.90;;;;;;5022336;28;20009;-91
2022/12/07 13:28:51;;;;;;;15.83;9.57;;;4.30;99.90;;;;;;5032969;28;20061;-92
2022/12/07 13:31:40;;;;;;;12.07;8.77;;;4.30;99.90;;;;;;5019092;28;20034;-91
2022/12/07 13:34:32;;;;;;;18.20;8.73;;;4.30;99.90;;;;;;5026485;28;20344;-91
2022/12/07 13:37:02;;;;;;;14.07;9.20;;;4.30;99.90;;;;;;5029192;28;20462;-87
2022/12/07 13:39:29;;;;;;;14.53;9.53;;;4.20;99.90;;;;;;5035192;28;20029;-87
2022/12/07 13:41:57;;;;;;;15.73;9.07;;;4.20;99.90;;;;;;5017845;28;20482;-87
2022/12/07 13:44:28;;;;;;;13.70;9.27;;;4.10;99.90;;;;;;5017220;28;20049;-87
2022/12/07 13:47:16;;;;;;;18.63;9.50;;;4.10;99.90;;;;;;5017094;28;20137;-87
2022/12/07 13:49:51;;;;;;;13.77;8.17;;;4.10;99.90;;;;;;5016664;28;20084;-87
2022/12/07 13:52:22;;;;;;;10.73;6.93;;;4.20;99.90;;;;;;5035063;28;20080;-87
2022/12/07 13:54:55;;;;;;;18.70;6.97;;;4.30;99.90;;;;;;5016831;28;20079;-87
2022/12/07 13:57:22;;;;;;;15.10;6.60;;;4.30;99.90;;;;;;5008452;28;20533;-87
2022/12/07 13:59:48;;;;;;;15.47;8.57;;;4.40;99.90;;;;;;5015189;28;20022;-87
2022/12/07 14:02:21;;;;;;;10.07;6.70;;;4.40;99.90;;;;;;4997945;28;20033;-87
2022/12/07 14:04:49;;;;;;;10.77;6.93;;;4.50;99.90;;;;;;5014965;28;20498;-87
2022/12/07 14:07:25;;;;;;;12.80;6.93;;;4.50;99.90;;;;;;4997609;28;20050;-87
2022/12/07 14:09:55;;;;;;;11.80;7.70;;;4.50;99.90;;;;;;4997297;28;20026;-86
2022/12/07 14:12:22;;;;;;;11.90;7.53;;;4.50;99.90;;;;;;4997316;28;20109;-87
2022/12/07 14:14:49;;;;;;;9.63;7.30;;;4.40;99.90;;;;;;4997289;28;20030;-87
2022/12/07 14:17:22;;;;;;;13.30;7.40;;;4.40;99.90;;;;;;5014697;28;20471;-87
2022/12/07 14:19:56;;;;;;;12.77;7.97;;;4.40;99.90;;;;;;5014505;28;20064;-87
2022/12/07 14:22:27;;;;;;;12.03;7.77;;;4.30;99.90;;;;;;5029629;28;20054;-87
2022/12/07 14:25:22;;;;;;;11.13;7.67;;;4.30;99.90;;;;;;5014426;28;20033;-87
2022/12/07 14:27:52;;;;;;;15.07;7.63;;;4.30;99.90;;;;;;5007095;28;20091;-87
2022/12/07 14:30:19;;;;;;;11.57;7.90;;;4.20;99.90;;;;;;5014138;28;20475;-87
2022/12/07 14:32:48;;;;;;;15.53;8.57;;;4.10;99.90;;;;;;5014024;28;20025;-86
2022/12/07 14:35:16;;;;;;;12.83;8.70;;;4.10;99.90;;;;;;5014087;28;20030;-86
2022/12/07 14:37:44;;;;;;;14.73;8.10;;;4.00;99.90;;;;;;5014239;28;20048;-86
2022/12/07 14:40:14;;;;;;;13.97;8.63;;;4.00;99.90;;;;;;5014132;28;20487;-87
2022/12/07 14:42:41;;;;;;;13.27;8.57;;;4.00;99.90;;;;;;5014376;28;20026;-86
2022/12/07 14:45:17;;;;;;;12.87;8.50;;;4.00;99.90;;;;;;5013787;28;20022;-86
2022/12/07 14:47:43;;;;;;;13.77;8.37;;;4.00;99.90;;;;;;5012523;28;20018;-86
2022/12/07 14:50:12;;;;;;;14.97;9.10;;;4.00;99.90;;;;;;5013895;28;20030;-87
2022/12/07 14:52:39;;;;;;;13.87;9.00;;;4.00;99.90;;;;;;5013161;28;20018;-87
2022/12/07 14:55:05;;;;;;;14.23;9.87;;;3.90;99.90;;;;;;5012574;28;20070;-86
2022/12/07 14:57:30;;;;;;;17.20;9.73;;;3.90;99.90;;;;;;5013805;28;20037;-87
2022/12/07 14:59:56;;;;;;;15.30;9.17;;;3.90;99.90;;;;;;5013708;28;20026;-87
2022/12/07 15:02:21;;;;;;;13.13;9.27;;;3.80;99.90;;;;;;5013865;28;20046;-87
2022/12/07 15:04:47;;;;;;;16.17;10.70;;;3.70;99.90;;;;;;5013575;28;20034;-87
2022/12/07 15:07:20;;;;;;;15.70;10.33;;;3.70;99.90;;;;;;5029718;28;20044;-87
2022/12/07 15:09:47;;;;;;;16.10;10.20;;;3.60;99.90;;;;;;5033167;28;20068;-86
2022/12/07 15:12:12;;;;;;;17.77;10.77;;;3.50;99.90;;;;;;5031761;28;20114;-87
2022/12/07 15:14:38;;;;;;;17.80;10.57;;;3.40;99.90;;;;;;5033154;28;20110;-87
2022/12/07 15:17:03;;;;;;;14.93;10.33;;;3.40;99.90;;;;;;5031718;28;20048;-87
2022/12/07 15:19:29;;;;;;;16.83;11.67;;;3.30;99.90;;;;;;5033187;28;20026;-87
2022/12/07 15:21:55;;;;;;;19.30;12.20;;;3.20;99.90;;;;;;5033631;28;20468;-87
2022/12/07 15:24:21;;;;;;;16.40;11.30;;;3.20;99.90;;;;;;5033015;28;20033;-87
2022/12/07 15:26:48;;;;;;;18.20;11.80;;;3.20;99.90;;;;;;5037229;28;20022;-87
2022/12/07 15:29:14;;;;;;;16.93;11.00;;;3.10;99.90;;;;;;5032948;28;20108;-87
2022/12/07 15:31:40;;;;;;;17.33;11.97;;;3.10;99.90;;;;;;5033090;28;20025;-86
2022/12/07 15:34:06;;;;;;;17.47;10.90;;;3.00;99.90;;;;;;5033052;28;20029;-87
2022/12/07 15:36:32;;;;;;;18.87;11.70;;;3.00;99.90;;;;;;5033182;28;20402;-87
2022/12/07 15:38:58;;;;;;;17.83;12.67;;;3.00;99.90;;;;;;5032790;28;20084;-87
2022/12/07 15:41:25;;;;;;;22.50;15.07;;;2.90;99.90;;;;;;5033044;28;20034;-87
2022/12/07 15:46:40;;;;;;;21.33;13.80;;;2.80;99.90;;;;;;5028084;28;20048;-90
2022/12/07 15:49:13;;;;;;;18.67;12.47;;;2.80;99.90;;;;;;5029594;28;20022;-89
2022/12/07 15:51:41;;;;;;;17.77;10.77;;;2.80;99.90;;;;;;5030021;28;20107;-89
2022/12/07 15:54:07;;;;;;;18.93;11.10;;;2.70;99.90;;;;;;5030435;28;20404;-85
2022/12/07 15:56:33;;;;;;;18.67;11.53;;;2.70;99.90;;;;;;5015006;28;20021;-85
2022/12/07 15:58:58;;;;;;;16.27;11.10;;;2.60;99.90;;;;;;5033053;28;20030;-85